KAPA/APA METAR and TAF weather

Enter ICAO airport designator
Station Type Date Time Source
KAPA METAR 2018/04/20 08:53 UTC NOAA

KAPA 200853Z 17013KT 10SM BKN220 08/M04 A2990 RMK AO2 PK WND 17034/0808 SLP088 T00781044 58004


Station Type Date Time Source
KAPA Decoded METAR 2018/04/20 08:53 UTC NOAA

DENVER CENTENNIAL AIRPORT, CO, United States (KAPA) 39-34N 104-51W 1775M
Apr 20, 2018 - 04:53 AM EDT / 2018.04.20 0853 UTC
Wind: from the S (170 degrees) at 15 MPH (13 KT):0
Visibility: 10 mile(s):0
Sky conditions: mostly cloudy
Temperature: 46.0 F (7.8 C)
Dew Point: 24.1 F (-4.4 C)
Relative Humidity: 41%
Pressure (altimeter): 29.9 in. Hg (1012 hPa)
Pressure tendency: 0.01 inches (0.4 hPa) lower than three hours ago
ob: KAPA 200853Z 17013KT 10SM BKN220 08/M04 A2990 RMK AO2 PK WND 17034/0808 SLP088 T00781044 58004
cycle: 9

Station Type Date Time Source
KAPA TAF 2018/04/20 06:57 UTC NOAA

TAF KAPA 200557Z 2006/2106 15020G30KT P6SM SCT120 BKN220
FM201300 14020G28KT P6SM SCT060 BKN120
FM201900 12018G26KT P6SM VCSH SCT030 BKN050 OVC070 PROB30 2020/2022 -SHRA BKN030
FM202200 10015G23KT P6SM -SHRA BKN025 OVC050
FM210100 03012KT 4SM -RASN BR SCT008 OVC020
TEMPO 2103/2106 2SM -SN BR OVC006


Example: see airport list